createdAt,value
2019-03-22T00:01:19.980Z,98693.27
2019-03-22T00:03:52.260Z,98693.28
2019-03-22T00:06:24.493Z,98696.80
2019-03-22T00:08:57.956Z,98689.98
2019-03-22T00:11:30.707Z,98694.13
2019-03-22T00:14:03.057Z,98688.92
2019-03-22T00:16:35.107Z,98683.66
2019-03-22T00:19:07.444Z,98680.76
2019-03-22T00:21:39.644Z,98679.71
2019-03-22T00:24:11.749Z,98689.19
2019-03-22T00:26:43.998Z,98677.64
2019-03-22T00:29:17.310Z,98675.94
2019-03-22T00:31:50.584Z,98675.87
2019-03-22T00:34:24.327Z,98676.17
2019-03-22T00:36:57.578Z,98676.47
2019-03-22T00:39:29.763Z,98673.55
2019-03-22T00:42:03.082Z,98666.13
2019-03-22T00:44:35.332Z,98661.56
2019-03-22T00:47:07.551Z,98662.64
2019-03-22T00:49:39.867Z,98659.11
2019-03-22T00:52:13.917Z,98657.75
2019-03-22T00:54:48.596Z,98664.91
2019-03-22T00:57:28.406Z,98657.67
2019-03-22T00:59:54.578Z,98655.43
2019-03-22T01:02:26.765Z,98657.72
2019-03-22T01:04:59.195Z,98654.55
2019-03-22T01:07:31.403Z,98660.81
2019-03-22T01:10:05.215Z,98653.67
2019-03-22T01:12:40.568Z,98648.67
2019-03-22T01:15:15.232Z,98654.29
2019-03-22T01:17:47.464Z,98643.42
2019-03-22T01:20:19.615Z,98647.45
2019-03-22T01:22:51.863Z,98646.91
2019-03-22T01:25:25.052Z,98653.38
2019-03-22T01:27:58.867Z,98648.17
2019-03-22T01:30:31.106Z,98645.49
2019-03-22T01:33:05.905Z,98649.59
2019-03-22T01:35:37.987Z,98639.64
2019-03-22T01:38:10.161Z,98639.16
2019-03-22T01:40:42.354Z,98636.97
2019-03-22T01:43:15.883Z,98631.53
2019-03-22T01:45:48.084Z,98633.59
2019-03-22T01:48:20.319Z,98635.66
2019-03-22T01:50:52.516Z,98632.68
2019-03-22T01:53:24.700Z,98629.89
2019-03-22T01:55:57.001Z,98624.42
2019-03-22T01:58:29.200Z,98627.64
2019-03-22T02:01:01.352Z,98625.38
2019-03-22T02:03:33.620Z,98627.89
2019-03-22T02:06:05.739Z,98630.89
2019-03-22T02:08:38.041Z,98629.87
2019-03-22T02:11:10.178Z,98626.52
2019-03-22T02:13:42.456Z,98627.80
2019-03-22T02:16:14.691Z,98624.37
2019-03-22T02:18:46.746Z,98617.98
2019-03-22T02:21:18.980Z,98621.19
2019-03-22T02:23:52.315Z,98619.59
2019-03-22T02:26:25.386Z,98623.34
2019-03-22T02:28:57.766Z,98627.93
2019-03-22T02:31:30.078Z,98628.34
2019-03-22T02:34:02.306Z,98625.67
2019-03-22T02:36:34.379Z,98627.67
2019-03-22T02:39:07.931Z,98623.03
2019-03-22T02:41:40.038Z,98621.67
2019-03-22T02:44:12.223Z,98618.47
2019-03-22T02:46:44.455Z,98621.64
2019-03-22T02:49:16.657Z,98619.23
2019-03-22T02:51:48.805Z,98623.47
2019-03-22T02:54:21.102Z,98620.03
2019-03-22T02:56:53.280Z,98622.73
2019-03-22T02:59:25.377Z,98620.84
2019-03-22T03:01:57.676Z,98619.20
2019-03-22T03:04:30.048Z,98617.00
2019-03-22T03:07:02.283Z,98618.46
2019-03-22T03:09:34.568Z,98614.67
2019-03-22T03:12:06.873Z,98618.20
2019-03-22T03:14:39.028Z,98611.08
2019-03-22T03:17:11.300Z,98613.46
2019-03-22T03:19:43.578Z,98613.16
2019-03-22T03:22:16.779Z,98609.91
2019-03-22T03:24:49.062Z,98609.41
2019-03-22T03:27:21.255Z,98607.11
2019-03-22T03:29:55.285Z,98613.63
2019-03-22T03:32:27.550Z,98614.80
2019-03-22T03:35:01.185Z,98607.36
2019-03-22T03:37:33.445Z,98609.42
2019-03-22T03:40:06.232Z,98609.97
2019-03-22T03:42:40.535Z,98609.73
2019-03-22T03:45:36.216Z,98610.31
2019-03-22T03:48:10.531Z,98613.87
2019-03-22T03:50:46.746Z,98614.43
2019-03-22T03:53:18.910Z,98616.13
2019-03-22T03:55:53.850Z,98619.83
2019-03-22T03:58:28.097Z,98620.15
2019-03-22T04:01:00.328Z,98621.36
2019-03-22T04:03:32.566Z,98616.78
2019-03-22T04:06:07.198Z,98617.63
2019-03-22T04:08:40.191Z,98613.25
2019-03-22T04:11:12.528Z,98624.78
2019-03-22T04:13:47.655Z,98622.02
2019-03-22T04:16:23.229Z,98617.70
2019-03-22T04:18:55.785Z,98622.16
2019-03-22T04:21:28.225Z,98623.53
2019-03-22T04:24:00.570Z,98619.38
2019-03-22T04:26:32.848Z,98620.36
2019-03-22T04:29:07.673Z,98621.03
2019-03-22T04:31:39.099Z,98624.31
2019-03-22T04:34:11.387Z,98628.47
2019-03-22T04:36:43.770Z,98620.23
2019-03-22T04:39:16.155Z,98630.19
2019-03-22T04:41:48.709Z,98623.08
2019-03-22T04:44:21.024Z,98616.97
2019-03-22T04:46:55.061Z,98630.33
2019-03-22T04:49:29.552Z,98621.63
2019-03-22T04:52:02.019Z,98627.96
2019-03-22T04:54:37.221Z,98622.39
2019-03-22T04:57:12.173Z,98623.38
2019-03-22T04:59:47.060Z,98624.44
2019-03-22T05:02:19.971Z,98603.75
2019-03-22T05:04:52.513Z,98630.09
2019-03-22T05:07:26.410Z,98629.14
2019-03-22T05:09:58.825Z,98625.84
2019-03-22T05:12:35.801Z,98628.78
2019-03-22T05:15:10.404Z,98633.98
2019-03-22T05:17:43.846Z,98636.16
2019-03-22T05:20:18.985Z,98629.23
2019-03-22T05:22:52.242Z,98636.14
2019-03-22T05:25:26.594Z,98640.78
2019-03-22T05:28:00.938Z,98639.57
2019-03-22T05:31:11.277Z,98647.25
2019-03-22T05:33:43.614Z,98645.70
2019-03-22T05:36:17.373Z,98652.83
2019-03-22T05:38:52.262Z,98649.12
2019-03-22T05:41:24.601Z,98651.61
2019-03-22T05:43:59.793Z,98654.83
2019-03-22T05:46:32.100Z,98652.41
2019-03-22T05:49:04.307Z,98662.13
2019-03-22T05:51:36.555Z,98664.70
2019-03-22T05:54:11.854Z,98663.03
2019-03-22T05:56:44.225Z,98662.55
2019-03-22T05:59:16.475Z,98663.45
2019-03-22T06:01:48.817Z,98663.77
2019-03-22T06:04:21.223Z,98671.77
2019-03-22T06:06:53.604Z,98673.21
2019-03-22T06:09:25.961Z,98665.94
2019-03-22T06:11:58.340Z,98667.94
2019-03-22T06:14:30.661Z,98668.73
2019-03-22T06:17:05.937Z,98670.89
2019-03-22T06:19:38.189Z,98672.31
2019-03-22T06:22:10.472Z,98672.88
2019-03-22T06:24:42.844Z,98672.36
2019-03-22T06:27:15.026Z,98664.05
2019-03-22T06:29:54.503Z,98669.25
2019-03-22T06:32:24.234Z,98675.17
2019-03-22T06:34:56.525Z,98675.50
2019-03-22T06:37:28.828Z,98671.38
2019-03-22T06:40:01.253Z,98673.09
2019-03-22T06:42:33.699Z,98672.50
2019-03-22T06:45:06.095Z,98670.05
2019-03-22T06:47:39.499Z,98671.66
2019-03-22T06:50:12.102Z,98670.90
2019-03-22T06:52:46.087Z,98670.04
2019-03-22T06:55:18.518Z,98665.55
2019-03-22T06:57:52.535Z,98673.23
2019-03-22T07:00:28.942Z,98673.64
2019-03-22T07:03:01.170Z,98668.39
2019-03-22T07:05:33.436Z,98674.83
2019-03-22T07:08:05.757Z,98674.20
2019-03-22T07:10:38.116Z,98673.41
2019-03-22T07:13:10.442Z,98680.45
2019-03-22T07:15:42.690Z,98675.65
2019-03-22T07:18:15.019Z,98677.94
2019-03-22T07:20:47.137Z,98679.32
2019-03-22T07:23:19.950Z,98686.41
2019-03-22T07:25:52.891Z,98682.02
2019-03-22T07:28:25.135Z,98680.23
2019-03-22T07:30:57.261Z,98680.53
2019-03-22T07:33:29.589Z,98685.31
2019-03-22T07:36:01.957Z,98681.81
2019-03-22T07:38:34.303Z,98681.81
2019-03-22T07:41:06.676Z,98682.66
2019-03-22T07:43:38.973Z,98689.16
2019-03-22T07:46:11.420Z,98684.13
2019-03-22T07:48:43.713Z,98687.84
2019-03-22T07:51:16.442Z,98693.03
2019-03-22T07:53:48.704Z,98687.04
2019-03-22T07:56:21.010Z,98682.98
2019-03-22T07:58:54.285Z,98683.92
2019-03-22T08:01:28.128Z,98679.85
2019-03-22T08:04:00.653Z,98680.13
2019-03-22T08:06:33.036Z,98677.09
2019-03-22T08:09:08.216Z,98678.77
2019-03-22T08:11:40.860Z,98671.61
2019-03-22T08:14:16.536Z,98677.41
2019-03-22T08:16:49.335Z,98671.83
2019-03-22T08:19:23.226Z,98680.91
2019-03-22T08:21:55.663Z,98671.50
2019-03-22T08:24:28.263Z,98672.78
2019-03-22T08:27:00.831Z,98671.92
2019-03-22T08:29:33.267Z,98670.58
2019-03-22T08:32:06.322Z,98673.84
2019-03-22T08:34:39.641Z,98663.31
2019-03-22T08:37:12.018Z,98665.11
2019-03-22T08:39:44.434Z,98660.77
2019-03-22T08:42:17.752Z,98664.22
2019-03-22T08:44:50.383Z,98661.43
2019-03-22T08:47:33.102Z,98659.27
2019-03-22T08:49:57.146Z,98662.75
2019-03-22T08:52:29.637Z,98661.80
2019-03-22T08:55:02.122Z,98661.02
2019-03-22T08:57:34.722Z,98658.66
2019-03-22T09:00:09.920Z,98662.61
2019-03-22T09:02:45.400Z,98649.72
2019-03-22T09:05:17.830Z,98652.81
2019-03-22T09:07:51.563Z,98652.00
2019-03-22T09:10:24.010Z,98651.54
2019-03-22T09:12:58.975Z,98648.14
2019-03-22T09:15:40.975Z,98647.03
2019-03-22T09:18:06.884Z,98636.38
2019-03-22T09:20:39.510Z,98635.36
2019-03-22T09:23:12.062Z,98644.19
2019-03-22T09:25:44.567Z,98635.10
2019-03-22T09:28:17.082Z,98635.80
2019-03-22T09:30:49.653Z,98635.83
2019-03-22T09:33:21.947Z,98630.27
2019-03-22T09:35:54.289Z,98626.02
2019-03-22T09:38:28.597Z,98633.03
2019-03-22T09:41:00.943Z,98634.37
2019-03-22T09:43:33.545Z,98629.81
2019-03-22T09:46:05.989Z,98622.77
2019-03-22T09:48:42.020Z,98623.89
2019-03-22T09:51:15.813Z,98630.87
2019-03-22T09:53:48.688Z,98629.64
2019-03-22T09:56:21.104Z,98617.09
2019-03-22T09:58:53.776Z,98621.89
2019-03-22T10:01:26.326Z,98626.42
2019-03-22T10:03:59.313Z,98629.58
2019-03-22T10:06:31.700Z,98624.69
2019-03-22T10:09:05.473Z,98620.56
2019-03-22T10:11:38.380Z,98617.22
2019-03-22T10:14:11.032Z,98619.61
2019-03-22T10:16:43.571Z,98611.89
2019-03-22T10:19:19.173Z,98603.28
2019-03-22T10:21:51.715Z,98609.57
2019-03-22T10:24:26.761Z,98610.42
2019-03-22T10:27:00.678Z,98604.31
2019-03-22T10:29:33.318Z,98604.14
2019-03-22T10:32:07.799Z,98603.96
2019-03-22T10:34:40.500Z,98600.77
2019-03-22T10:37:12.917Z,98600.26
2019-03-22T10:39:48.052Z,98587.44
2019-03-22T10:42:20.528Z,98581.92
2019-03-22T10:44:53.310Z,98582.19
2019-03-22T10:47:27.886Z,98575.19
2019-03-22T10:50:00.553Z,98568.26
2019-03-22T10:52:33.018Z,98568.16
2019-03-22T10:55:23.425Z,98567.03
2019-03-22T10:57:40.389Z,98547.72
2019-03-22T11:00:17.952Z,98547.63
2019-03-22T11:02:50.791Z,98547.15
2019-03-22T11:05:23.263Z,98541.44
2019-03-22T11:07:55.608Z,98537.27
2019-03-22T11:10:28.034Z,98535.10
2019-03-22T11:13:02.408Z,98538.94
2019-03-22T11:15:35.718Z,98523.14
2019-03-22T11:18:08.295Z,98518.88
2019-03-22T11:20:40.703Z,98503.41
2019-03-22T11:23:13.151Z,98512.11
2019-03-22T11:25:45.689Z,98509.34
2019-03-22T11:28:19.450Z,98505.67
2019-03-22T11:30:53.022Z,98506.33
2019-03-22T11:33:25.328Z,98501.76
2019-03-22T11:35:58.340Z,98503.83
2019-03-22T11:38:30.568Z,98498.91
2019-03-22T11:41:02.819Z,98500.78
2019-03-22T11:43:35.168Z,98506.02
2019-03-22T11:46:07.474Z,98504.02
2019-03-22T11:48:39.854Z,98493.52
2019-03-22T11:51:12.156Z,98484.13
2019-03-22T11:53:44.435Z,98486.14
2019-03-22T11:56:20.290Z,98475.88
2019-03-22T11:58:54.521Z,98468.97
2019-03-22T12:01:25.731Z,98471.00
2019-03-22T12:03:58.157Z,98468.39
2019-03-22T12:06:30.586Z,98472.15
2019-03-22T12:09:04.344Z,98459.36
2019-03-22T12:11:38.939Z,98449.23
2019-03-22T12:14:11.431Z,98466.59
2019-03-22T12:16:43.766Z,98468.52
2019-03-22T12:21:50.456Z,98455.31
2019-03-22T12:24:23.996Z,98457.48
2019-03-22T12:26:56.318Z,98451.48
2019-03-22T12:29:28.843Z,98439.70
2019-03-22T12:32:02.282Z,98439.04
2019-03-22T12:34:34.733Z,98438.56
2019-03-22T12:37:07.046Z,98435.84
2019-03-22T12:39:41.730Z,98430.00
2019-03-22T12:42:13.688Z,98429.31
2019-03-22T12:44:46.212Z,98421.69
2019-03-22T12:47:18.533Z,98417.24
2019-03-22T12:49:52.915Z,98422.25
2019-03-22T12:52:25.888Z,98424.78
2019-03-22T12:54:58.098Z,98422.05
2019-03-22T12:57:30.392Z,98412.95
2019-03-22T13:00:05.869Z,98414.46
2019-03-22T13:02:42.471Z,98420.61
2019-03-22T13:05:17.401Z,98408.45
2019-03-22T13:07:50.689Z,98408.86
2019-03-22T13:10:26.240Z,98403.38
2019-03-22T13:13:00.855Z,98399.84
2019-03-22T13:15:34.931Z,98391.94
2019-03-22T13:18:07.495Z,98386.28
2019-03-22T13:20:40.354Z,98387.71
2019-03-22T13:23:14.045Z,98384.95
2019-03-22T13:25:48.063Z,98379.64
2019-03-22T13:28:20.909Z,98381.08
2019-03-22T13:30:54.293Z,98373.25
2019-03-22T13:36:28.124Z,98372.38
2019-03-22T13:39:00.405Z,98362.17
2019-03-22T13:41:34.341Z,98366.27
2019-03-22T13:44:07.923Z,98364.18
2019-03-22T13:46:41.889Z,98365.88
2019-03-22T13:49:14.340Z,98359.73
2019-03-22T13:51:48.520Z,98359.54
2019-03-22T13:54:20.763Z,98351.67
2019-03-22T13:56:53.946Z,98348.19
2019-03-22T13:59:26.449Z,98338.69
2019-03-22T14:01:58.749Z,98337.67
2019-03-22T14:04:31.840Z,98337.67
2019-03-22T14:07:06.517Z,98343.95
2019-03-22T14:09:38.778Z,98340.44
2019-03-22T14:12:13.356Z,98338.58
2019-03-22T14:14:45.771Z,98337.28
2019-03-22T14:17:23.840Z,98343.59
2019-03-22T14:19:56.362Z,98345.72
2019-03-22T14:22:30.508Z,98341.30
2019-03-22T14:25:03.331Z,98338.60
2019-03-22T14:27:35.617Z,98337.77
2019-03-22T14:30:09.916Z,98333.98
2019-03-22T14:32:42.203Z,98334.80
2019-03-22T14:35:16.903Z,98334.59
2019-03-22T14:37:49.276Z,98324.86
2019-03-22T14:40:21.543Z,98328.37
2019-03-22T14:42:54.068Z,98322.16
2019-03-22T14:45:26.469Z,98320.30
2019-03-22T14:47:58.805Z,98308.66
2019-03-22T14:50:31.297Z,98317.18
2019-03-22T14:53:03.721Z,98309.80
2019-03-22T14:55:36.210Z,98309.80
2019-03-22T14:58:09.394Z,98317.95
2019-03-22T15:00:41.979Z,98313.22
2019-03-22T15:03:38.987Z,98310.08
2019-03-22T15:06:11.967Z,98310.79
2019-03-22T15:08:44.338Z,98312.16
2019-03-22T15:11:16.656Z,98306.42
2019-03-22T15:14:07.623Z,98309.59
2019-03-22T15:16:53.820Z,98313.09
2019-03-22T15:19:53.686Z,98310.16
2019-03-22T15:22:43.229Z,98314.50
2019-03-22T15:25:37.577Z,98311.64
2019-03-22T15:28:28.252Z,98320.81
2019-03-22T15:31:22.120Z,98311.95
2019-03-22T15:34:16.271Z,98311.95
2019-03-22T15:37:15.452Z,98314.11
2019-03-22T15:40:16.280Z,98313.25
2019-03-22T15:42:48.888Z,98317.29
2019-03-22T15:45:23.033Z,98313.00
2019-03-22T15:47:55.911Z,98301.75
2019-03-22T15:50:28.374Z,98301.75
2019-03-22T15:53:02.168Z,98301.81
2019-03-22T15:55:36.898Z,98305.92
2019-03-22T15:58:09.445Z,98305.92
2019-03-22T16:00:43.325Z,98297.78
2019-03-22T16:03:16.030Z,98305.22
2019-03-22T16:05:50.697Z,98305.22
2019-03-22T16:08:28.368Z,98307.00
2019-03-22T16:11:01.599Z,98310.91
2019-03-22T16:13:48.917Z,98313.42
2019-03-22T16:16:21.475Z,98318.66
2019-03-22T16:18:57.656Z,98307.23
2019-03-22T16:21:32.694Z,98306.42
2019-03-22T16:24:05.729Z,98306.42
2019-03-22T16:26:38.136Z,98307.05
2019-03-22T16:29:10.517Z,98301.20
2019-03-22T16:31:43.181Z,98300.31
2019-03-22T16:34:21.155Z,98300.91
2019-03-22T16:36:53.654Z,98300.91
2019-03-22T16:39:26.150Z,98301.09
2019-03-22T16:41:58.787Z,98292.73
2019-03-22T16:44:31.166Z,98292.73
2019-03-22T16:47:03.580Z,98297.00
2019-03-22T16:49:35.898Z,98295.19
2019-03-22T16:52:08.115Z,98294.66
2019-03-22T16:54:40.511Z,98298.31
2019-03-22T16:57:12.947Z,98296.48
2019-03-22T16:59:45.320Z,98301.47
2019-03-22T17:02:17.847Z,98297.06
2019-03-22T17:04:50.375Z,98299.64
2019-03-22T17:07:22.656Z,98295.72
2019-03-22T17:09:56.650Z,98304.22
2019-03-22T17:12:29.178Z,98306.10
2019-03-22T17:15:02.888Z,98305.52
2019-03-22T17:17:35.354Z,98304.53
2019-03-22T17:20:08.894Z,98300.66
2019-03-22T17:22:41.320Z,98299.82
2019-03-22T17:25:13.747Z,98295.95
2019-03-22T17:27:47.241Z,98298.53
2019-03-22T17:30:19.956Z,98291.68
2019-03-22T17:32:52.457Z,98292.39
2019-03-22T17:35:24.939Z,98294.13
2019-03-22T17:37:58.983Z,98301.25
2019-03-22T17:40:33.070Z,98295.55
2019-03-22T17:43:05.524Z,98299.12
2019-03-22T17:45:38.009Z,98303.78
2019-03-22T17:48:11.384Z,98300.27
2019-03-22T17:50:46.399Z,98294.04
2019-03-22T17:53:20.417Z,98295.63
2019-03-22T17:55:52.825Z,98288.11
2019-03-22T17:58:25.351Z,98289.16
2019-03-22T18:01:01.482Z,98291.44
2019-03-22T18:03:34.110Z,98288.73
2019-03-22T18:06:06.626Z,98285.92
2019-03-22T18:08:40.361Z,98287.52
2019-03-22T18:11:12.727Z,98299.48
2019-03-22T18:13:45.115Z,98293.80
2019-03-22T18:16:17.529Z,98296.77
2019-03-22T18:18:51.010Z,98293.44
2019-03-22T18:21:23.438Z,98297.84
2019-03-22T18:23:55.920Z,98294.11
2019-03-22T18:26:28.394Z,98291.31
2019-03-22T18:29:00.838Z,98300.03
2019-03-22T18:31:33.312Z,98293.21
2019-03-22T18:34:05.662Z,98305.03
2019-03-22T18:39:10.421Z,98295.49
2019-03-22T18:41:43.863Z,98289.21
2019-03-22T18:44:16.261Z,98288.30
2019-03-22T18:46:48.681Z,98287.20
2019-03-22T18:49:20.972Z,98278.09
2019-03-22T18:51:53.257Z,98277.64
2019-03-22T18:54:25.682Z,98279.24
2019-03-22T18:56:58.218Z,98275.38
2019-03-22T18:59:30.526Z,98278.84
2019-03-22T19:02:02.986Z,98276.13
2019-03-22T19:04:43.838Z,98270.04
2019-03-22T19:07:09.438Z,98277.56
2019-03-22T19:09:41.784Z,98271.78
2019-03-22T19:12:14.177Z,98272.70
2019-03-22T19:14:46.381Z,98267.91
2019-03-22T19:17:24.788Z,98268.30
2019-03-22T19:19:57.026Z,98266.62
2019-03-22T19:22:29.445Z,98263.91
2019-03-22T19:25:01.746Z,98264.13
2019-03-22T19:27:34.335Z,98261.55
2019-03-22T19:30:07.650Z,98262.48
2019-03-22T19:33:16.942Z,98265.73
2019-03-22T19:36:15.238Z,98263.69
2019-03-22T19:38:49.094Z,98260.48
2019-03-22T19:41:21.436Z,98261.19
2019-03-22T19:43:53.803Z,98261.77
2019-03-22T19:46:26.123Z,98257.45
2019-03-22T19:48:58.470Z,98254.34
2019-03-22T19:51:30.943Z,98252.06
2019-03-22T19:54:03.430Z,98250.77
2019-03-22T19:56:36.001Z,98255.55
2019-03-22T19:59:08.380Z,98259.72
2019-03-22T20:01:40.838Z,98259.95
2019-03-22T20:04:13.869Z,98259.20
2019-03-22T20:06:46.364Z,98249.73
2019-03-22T20:09:18.746Z,98248.66
2019-03-22T20:11:51.231Z,98251.78
2019-03-22T20:14:30.718Z,98251.16
2019-03-22T20:17:05.864Z,98251.61
2019-03-22T20:19:38.171Z,98247.19
2019-03-22T20:22:10.517Z,98244.39
2019-03-22T20:24:42.894Z,98244.28
2019-03-22T20:27:15.187Z,98199.73
2019-03-22T20:29:47.645Z,98235.92
2019-03-22T20:32:20.116Z,98240.02
2019-03-22T20:34:52.426Z,98234.81
2019-03-22T20:37:24.826Z,98225.81
2019-03-22T20:39:58.261Z,98225.66
2019-03-22T20:42:30.610Z,98226.36
2019-03-22T20:45:03.167Z,98229.75
2019-03-22T20:47:35.524Z,98221.99
2019-03-22T20:50:07.967Z,98219.05
2019-03-22T20:52:40.315Z,98224.66
2019-03-22T20:55:12.591Z,98221.99
2019-03-22T20:57:46.746Z,98221.55
2019-03-22T21:00:19.543Z,98220.11
2019-03-22T21:02:51.997Z,98221.75
2019-03-22T21:05:27.208Z,98214.33
2019-03-22T21:07:58.922Z,98205.70
2019-03-22T21:10:31.298Z,98202.52
2019-03-22T21:13:04.485Z,98199.49
2019-03-22T21:15:37.010Z,98194.78
2019-03-22T21:18:09.560Z,98194.16
2019-03-22T21:20:41.976Z,98188.77
2019-03-22T21:23:14.239Z,98184.23
2019-03-22T21:25:46.565Z,98191.35
2019-03-22T21:28:18.901Z,98191.81
2019-03-22T21:30:51.337Z,98182.40
2019-03-22T21:33:23.771Z,98185.05
2019-03-22T21:35:56.113Z,98180.58
2019-03-22T21:38:28.597Z,98183.03
2019-03-22T21:41:00.943Z,98185.22
2019-03-22T21:43:33.440Z,98191.22
2019-03-22T21:46:05.853Z,98188.77
2019-03-22T21:48:38.142Z,98185.75
2019-03-22T21:51:10.286Z,98189.17
2019-03-22T21:53:42.545Z,98192.35
2019-03-22T21:56:14.864Z,98193.36
2019-03-22T21:58:47.129Z,98188.97
2019-03-22T22:01:20.639Z,98190.92
2019-03-22T22:03:53.056Z,98187.50
2019-03-22T22:06:25.309Z,98187.72
2019-03-22T22:08:57.578Z,98192.42
2019-03-22T22:11:29.696Z,98188.03
2019-03-22T22:14:02.661Z,98189.41
2019-03-22T22:16:35.021Z,98188.13
2019-03-22T22:19:07.518Z,98183.26
2019-03-22T22:21:39.882Z,98184.67
2019-03-22T22:24:12.193Z,98184.38
2019-03-22T22:26:44.554Z,98182.12
2019-03-22T22:29:17.188Z,98184.98
2019-03-22T22:31:49.452Z,98181.20
2019-03-22T22:34:22.170Z,98177.27
2019-03-22T22:36:54.557Z,98176.50
2019-03-22T22:39:27.074Z,98180.89
2019-03-22T22:42:01.726Z,98182.03
2019-03-22T22:44:34.515Z,98178.22
2019-03-22T22:47:09.046Z,98179.61
2019-03-22T22:49:41.550Z,98178.63
2019-03-22T22:52:13.967Z,98177.49
2019-03-22T22:54:46.341Z,98182.71
2019-03-22T22:57:18.664Z,98176.81
2019-03-22T22:59:51.361Z,98176.59
2019-03-22T23:02:23.703Z,98175.12
2019-03-22T23:04:56.593Z,98175.45
2019-03-22T23:07:30.149Z,98173.70
2019-03-22T23:10:02.637Z,98175.52
2019-03-22T23:12:35.166Z,98175.89
2019-03-22T23:15:07.995Z,98179.52
2019-03-22T23:17:40.428Z,98178.23
2019-03-22T23:20:13.135Z,98177.64
2019-03-22T23:22:45.644Z,98176.80
2019-03-22T23:25:17.838Z,98177.94
2019-03-22T23:27:50.316Z,98173.92
2019-03-22T23:30:25.344Z,98176.17
2019-03-22T23:32:57.646Z,98170.34
2019-03-22T23:35:30.275Z,98170.72
2019-03-22T23:38:02.651Z,98165.22
2019-03-22T23:40:35.036Z,98159.09
2019-03-22T23:43:07.609Z,98113.69
2019-03-22T23:45:40.067Z,98164.36
2019-03-22T23:48:12.497Z,98156.32
2019-03-22T23:50:44.867Z,98155.49
2019-03-22T23:53:17.215Z,98158.68
2019-03-22T23:55:49.484Z,98153.70
2019-03-22T23:58:21.927Z,98148.02
